createdAt,value
2019-01-31T00:01:40.685Z,1.10
2019-01-31T00:04:14.776Z,1.40
2019-01-31T00:07:02.978Z,1.13
2019-01-31T00:09:34.600Z,1.60
2019-01-31T00:12:12.133Z,1.57
2019-01-31T00:14:49.671Z,1.40
2019-01-31T00:17:42.178Z,1.50
2019-01-31T00:20:19.642Z,1.47
2019-01-31T00:23:24.571Z,1.50
2019-01-31T00:26:27.940Z,1.63
2019-01-31T00:29:20.441Z,1.43
2019-01-31T00:32:06.746Z,1.40
2019-01-31T00:35:02.360Z,2.00
2019-01-31T00:37:48.731Z,1.50
2019-01-31T00:40:38.488Z,1.30
2019-01-31T00:43:10.104Z,1.57
2019-01-31T00:45:41.833Z,1.33
2019-01-31T00:48:30.253Z,1.57
2019-01-31T00:51:16.778Z,1.40
2019-01-31T00:53:59.958Z,1.37
2019-01-31T00:56:37.160Z,1.40
2019-01-31T00:59:28.283Z,2.13
2019-01-31T01:02:18.055Z,1.80
2019-01-31T01:05:07.150Z,2.10
2019-01-31T01:07:41.840Z,1.93
2019-01-31T01:10:22.039Z,1.90
2019-01-31T01:12:56.754Z,1.73
2019-01-31T01:15:40.200Z,1.60
2019-01-31T01:18:14.416Z,2.00
2019-01-31T01:20:58.153Z,1.30
2019-01-31T01:23:35.796Z,1.20
2019-01-31T01:26:13.545Z,1.17
2019-01-31T01:28:45.173Z,1.73
2019-01-31T01:31:16.791Z,1.27
2019-01-31T01:34:21.845Z,1.80
2019-01-31T01:37:10.078Z,1.40
2019-01-31T01:40:07.241Z,1.37
2019-01-31T01:42:41.682Z,1.43
2019-01-31T01:45:25.339Z,1.37
2019-01-31T01:47:59.534Z,1.20
2019-01-31T01:50:48.553Z,1.23
2019-01-31T01:53:28.658Z,1.17
2019-01-31T01:56:21.283Z,1.47
2019-01-31T01:58:58.838Z,1.30
2019-01-31T02:01:52.947Z,1.33
2019-01-31T02:04:30.338Z,1.53
2019-01-31T02:07:21.682Z,1.30
2019-01-31T02:10:09.925Z,1.60
2019-01-31T02:13:02.326Z,1.70
2019-01-31T02:15:58.303Z,2.17
2019-01-31T02:18:29.975Z,1.50
2019-01-31T02:21:22.553Z,1.80
2019-01-31T02:24:02.745Z,1.70
2019-01-31T02:26:54.101Z,1.20
2019-01-31T02:29:37.690Z,1.17
2019-01-31T02:32:11.814Z,1.37
2019-01-31T02:34:52.062Z,1.40
2019-01-31T02:37:26.533Z,1.67
2019-01-31T02:40:19.105Z,1.63
2019-01-31T02:42:56.551Z,1.20
2019-01-31T02:45:31.086Z,1.57
2019-01-31T02:48:02.743Z,1.10
2019-01-31T02:50:57.105Z,1.10
2019-01-31T02:53:31.612Z,1.37
2019-01-31T02:56:05.671Z,1.80
2019-01-31T02:58:39.767Z,1.30
2019-01-31T03:01:17.542Z,1.50
2019-01-31T03:04:20.539Z,1.67
2019-01-31T03:06:58.152Z,2.10
2019-01-31T03:09:32.546Z,1.20
2019-01-31T03:12:13.217Z,1.73
2019-01-31T03:14:43.441Z,1.23
2019-01-31T03:17:32.778Z,1.50
2019-01-31T03:20:28.014Z,1.50
2019-01-31T03:23:07.701Z,1.33
2019-01-31T03:25:45.243Z,1.47
2019-01-31T03:28:25.770Z,1.37
2019-01-31T03:30:57.360Z,1.57
2019-01-31T03:34:00.537Z,1.40
2019-01-31T03:37:00.877Z,1.40
2019-01-31T03:39:40.867Z,1.60
2019-01-31T03:42:12.538Z,1.20
2019-01-31T03:44:49.850Z,1.37
2019-01-31T03:47:21.498Z,1.40
2019-01-31T03:49:59.041Z,1.50
2019-01-31T03:52:36.497Z,1.20
2019-01-31T03:55:19.866Z,1.10
2019-01-31T03:58:09.439Z,1.23
2019-01-31T04:00:43.674Z,1.40
2019-01-31T04:03:17.669Z,1.13
2019-01-31T04:05:49.348Z,1.40
2019-01-31T04:08:17.725Z,1.30
2019-01-31T04:10:46.156Z,1.50
2019-01-31T04:13:14.542Z,1.20
2019-01-31T04:15:42.921Z,1.30
2019-01-31T04:18:11.391Z,1.50
2019-01-31T04:20:39.758Z,1.47
2019-01-31T04:23:08.260Z,1.43
2019-01-31T04:25:36.632Z,1.00
2019-01-31T04:28:05.018Z,1.10
2019-01-31T04:30:33.354Z,1.00
2019-01-31T04:33:01.731Z,1.13
2019-01-31T04:35:30.087Z,1.37
2019-01-31T04:38:00.109Z,1.20
2019-01-31T04:40:31.615Z,1.43
2019-01-31T04:42:58.568Z,1.13
2019-01-31T04:45:26.866Z,1.23
2019-01-31T04:47:56.458Z,1.27
2019-01-31T04:50:25.095Z,1.30
2019-01-31T04:52:53.465Z,1.20
2019-01-31T04:55:21.836Z,1.30
2019-01-31T04:57:50.303Z,1.63
2019-01-31T05:00:18.849Z,1.50
2019-01-31T05:02:47.195Z,2.00
2019-01-31T05:05:15.614Z,1.27
2019-01-31T05:07:43.965Z,1.87
2019-01-31T05:10:13.253Z,2.10
2019-01-31T05:12:41.708Z,2.30
2019-01-31T05:15:14.128Z,2.10
2019-01-31T05:17:42.482Z,3.60
2019-01-31T05:20:16.355Z,3.23
2019-01-31T05:22:44.725Z,4.47
2019-01-31T05:25:14.366Z,3.30
2019-01-31T05:27:42.746Z,2.07
2019-01-31T05:30:13.821Z,1.60
2019-01-31T05:32:42.193Z,1.53
2019-01-31T05:35:11.382Z,1.67
2019-01-31T05:37:39.760Z,1.87
2019-01-31T05:40:10.842Z,2.47
2019-01-31T05:42:39.234Z,1.73
2019-01-31T05:45:10.788Z,1.70
2019-01-31T05:47:39.184Z,1.90
2019-01-31T05:50:13.099Z,1.40
2019-01-31T05:52:41.493Z,1.70
2019-01-31T05:55:09.995Z,1.47
2019-01-31T05:57:38.472Z,1.80
2019-01-31T06:00:10.023Z,1.57
2019-01-31T06:02:38.419Z,1.90
2019-01-31T06:05:09.011Z,2.10
2019-01-31T06:07:37.401Z,1.80
2019-01-31T06:10:12.617Z,1.93
2019-01-31T06:12:41.014Z,1.77
2019-01-31T06:15:12.579Z,2.10
2019-01-31T06:17:40.948Z,2.37
2019-01-31T06:20:13.117Z,2.03
2019-01-31T06:22:41.490Z,2.77
2019-01-31T06:25:09.874Z,2.40
2019-01-31T06:27:38.499Z,2.37
2019-01-31T06:30:13.005Z,4.43
2019-01-31T06:32:41.578Z,2.40
2019-01-31T06:35:11.404Z,2.50
2019-01-31T06:37:39.869Z,2.60
2019-01-31T06:40:14.256Z,2.40
2019-01-31T06:42:42.634Z,2.23
2019-01-31T06:45:15.005Z,2.40
2019-01-31T06:47:45.451Z,2.70
2019-01-31T06:50:13.854Z,2.80
2019-01-31T06:52:42.295Z,2.87
2019-01-31T06:55:11.620Z,2.50
2019-01-31T06:57:40.091Z,2.73
2019-01-31T07:00:14.544Z,1.80
2019-01-31T07:02:43.185Z,2.00
2019-01-31T07:05:11.551Z,1.80
2019-01-31T07:07:39.953Z,2.90
2019-01-31T07:10:20.255Z,2.63
2019-01-31T07:12:48.650Z,3.03
2019-01-31T07:15:17.122Z,2.80
2019-01-31T07:17:45.549Z,3.50
2019-01-31T07:20:19.811Z,2.73
2019-01-31T07:22:48.207Z,3.60
2019-01-31T07:25:19.265Z,3.13
2019-01-31T07:27:47.708Z,3.70
2019-01-31T07:30:18.588Z,3.27
2019-01-31T07:32:46.965Z,3.23
2019-01-31T07:35:15.540Z,3.47
2019-01-31T07:37:43.989Z,3.10
2019-01-31T07:40:18.192Z,2.80
2019-01-31T07:42:46.596Z,2.80
2019-01-31T07:45:24.338Z,2.67
2019-01-31T07:47:52.734Z,2.70
2019-01-31T07:50:21.150Z,2.50
2019-01-31T07:52:49.544Z,2.07
2019-01-31T07:55:18.367Z,2.33
2019-01-31T07:57:46.769Z,2.17
2019-01-31T08:00:23.635Z,2.60
2019-01-31T08:02:52.125Z,2.60
2019-01-31T08:05:22.392Z,2.97
2019-01-31T08:07:51.906Z,2.30
2019-01-31T08:10:23.171Z,2.20
2019-01-31T08:12:51.632Z,2.90
2019-01-31T08:15:20.034Z,3.10
2019-01-31T08:17:48.470Z,2.33
2019-01-31T08:20:18.431Z,2.50
2019-01-31T08:22:46.835Z,2.60
2019-01-31T08:25:17.542Z,2.90
2019-01-31T08:27:46.030Z,2.80
2019-01-31T08:30:17.419Z,3.30
2019-01-31T08:32:45.797Z,3.00
2019-01-31T08:35:17.353Z,2.67
2019-01-31T08:37:45.822Z,3.07
2019-01-31T08:40:14.489Z,2.83
2019-01-31T08:42:42.856Z,2.80
2019-01-31T08:45:13.167Z,2.70
2019-01-31T08:47:41.705Z,2.97
2019-01-31T08:50:18.604Z,3.50
2019-01-31T08:52:46.913Z,3.30
2019-01-31T08:55:15.319Z,2.80
2019-01-31T08:57:43.704Z,3.57
2019-01-31T09:00:23.699Z,3.17
2019-01-31T09:02:52.006Z,3.00
2019-01-31T09:05:20.363Z,3.70
2019-01-31T09:07:48.760Z,3.30
2019-01-31T09:10:29.328Z,3.43
2019-01-31T09:12:58.887Z,2.77
2019-01-31T09:15:27.380Z,3.57
2019-01-31T09:17:55.780Z,2.80
2019-01-31T09:20:27.425Z,3.10
2019-01-31T09:23:05.047Z,2.70
2019-01-31T09:25:45.540Z,3.47
2019-01-31T09:28:17.101Z,2.80
2019-01-31T09:30:51.410Z,2.90
2019-01-31T09:33:41.123Z,2.77
2019-01-31T09:36:24.906Z,2.30
2019-01-31T09:39:13.230Z,3.03
2019-01-31T09:41:53.872Z,3.30
2019-01-31T09:44:50.857Z,2.77
2019-01-31T09:47:34.581Z,2.67
2019-01-31T09:50:22.541Z,2.67
2019-01-31T09:52:54.496Z,2.33
2019-01-31T09:55:29.128Z,2.90
2019-01-31T09:58:15.158Z,2.57
2019-01-31T10:01:06.165Z,3.00
2019-01-31T10:03:43.555Z,2.60
2019-01-31T10:06:28.073Z,2.80
2019-01-31T10:09:08.775Z,3.37
2019-01-31T10:12:11.910Z,3.20
2019-01-31T10:14:48.994Z,3.23
2019-01-31T10:17:26.519Z,3.00
2019-01-31T10:20:20.222Z,2.47
2019-01-31T10:22:53.458Z,2.60
2019-01-31T10:25:50.550Z,2.10
2019-01-31T10:28:37.202Z,2.00
2019-01-31T10:31:11.853Z,1.73
2019-01-31T10:34:08.934Z,2.10
2019-01-31T10:36:52.391Z,1.80
2019-01-31T10:39:29.925Z,2.27
2019-01-31T10:42:12.965Z,2.43
2019-01-31T10:44:53.459Z,2.10
2019-01-31T10:47:33.762Z,2.50
2019-01-31T10:50:23.304Z,2.30
2019-01-31T10:53:15.423Z,2.53
2019-01-31T10:56:06.035Z,1.90
2019-01-31T10:58:58.322Z,1.80
2019-01-31T11:01:54.241Z,1.57
2019-01-31T11:04:28.824Z,1.67
2019-01-31T11:07:18.238Z,1.67
2019-01-31T11:10:07.851Z,2.10
2019-01-31T11:13:00.683Z,1.83
2019-01-31T11:16:06.706Z,1.50
2019-01-31T11:18:46.929Z,2.00
2019-01-31T11:21:18.640Z,1.90
2019-01-31T11:23:59.229Z,1.60
2019-01-31T11:26:30.890Z,1.50
2019-01-31T11:29:08.237Z,1.70
2019-01-31T11:31:42.550Z,2.40
2019-01-31T11:34:14.194Z,1.87
2019-01-31T11:37:03.482Z,1.60
2019-01-31T11:39:59.231Z,2.10
2019-01-31T11:42:53.435Z,1.50
2019-01-31T11:45:31.232Z,2.20
2019-01-31T11:48:14.810Z,1.70
2019-01-31T11:50:49.373Z,3.23
2019-01-31T11:53:35.410Z,2.57
2019-01-31T11:56:26.614Z,2.47
2019-01-31T11:59:00.540Z,3.20
2019-01-31T12:01:29.014Z,3.10
2019-01-31T12:04:00.014Z,2.13
2019-01-31T12:06:28.405Z,1.70
2019-01-31T12:08:56.755Z,1.50
2019-01-31T12:11:25.130Z,2.10
2019-01-31T12:13:53.543Z,1.70
2019-01-31T12:16:21.909Z,1.77
2019-01-31T12:18:50.311Z,1.90
2019-01-31T12:21:18.634Z,2.30
2019-01-31T12:23:47.108Z,1.70
2019-01-31T12:26:15.483Z,1.30
2019-01-31T12:28:43.891Z,1.67
2019-01-31T12:31:12.220Z,2.30
2019-01-31T12:33:40.722Z,1.30
2019-01-31T12:36:09.542Z,2.20
2019-01-31T12:38:37.916Z,1.90
2019-01-31T12:41:10.149Z,2.10
2019-01-31T12:43:38.523Z,1.87
2019-01-31T12:46:06.902Z,1.40
2019-01-31T12:48:35.270Z,1.60
2019-01-31T12:51:03.721Z,1.57
2019-01-31T12:53:35.946Z,2.70
2019-01-31T12:56:04.282Z,1.80
2019-01-31T12:58:33.941Z,1.50
2019-01-31T13:01:02.522Z,1.30
2019-01-31T13:03:30.948Z,1.30
2019-01-31T13:05:59.403Z,1.40
2019-01-31T13:08:27.849Z,1.60
2019-01-31T13:10:56.166Z,1.63
2019-01-31T13:13:24.611Z,1.20
2019-01-31T13:15:52.870Z,1.40
2019-01-31T13:18:21.265Z,1.10
2019-01-31T13:20:52.808Z,2.40
2019-01-31T13:23:21.152Z,1.40
2019-01-31T13:25:49.583Z,1.20
2019-01-31T13:28:17.973Z,1.27
2019-01-31T13:30:46.345Z,1.30
2019-01-31T13:33:14.805Z,1.20
2019-01-31T13:35:43.193Z,1.10
2019-01-31T13:38:11.478Z,1.33
2019-01-31T13:40:39.872Z,1.20
2019-01-31T13:43:08.232Z,1.40
2019-01-31T13:45:36.697Z,1.30
2019-01-31T13:48:07.517Z,1.47
2019-01-31T13:50:35.895Z,1.40
2019-01-31T13:53:06.283Z,1.47
2019-01-31T13:55:34.678Z,1.70
2019-01-31T13:58:03.054Z,1.27
2019-01-31T14:00:31.501Z,1.50
2019-01-31T14:02:59.855Z,1.00
2019-01-31T14:05:30.086Z,1.30
2019-01-31T14:07:58.429Z,1.70
2019-01-31T14:10:27.434Z,2.10
2019-01-31T14:12:55.777Z,1.80
2019-01-31T14:15:33.651Z,1.90
2019-01-31T14:17:56.836Z,1.90
2019-01-31T14:20:26.754Z,2.33
2019-01-31T14:22:55.129Z,2.13
2019-01-31T14:25:23.479Z,2.30
2019-01-31T14:27:51.862Z,1.60
2019-01-31T14:30:25.616Z,1.60
2019-01-31T14:32:54.326Z,2.03
2019-01-31T14:35:22.679Z,2.23
2019-01-31T14:37:51.109Z,2.33
2019-01-31T14:40:19.426Z,1.47
2019-01-31T14:42:47.791Z,1.80
2019-01-31T14:45:17.294Z,1.87
2019-01-31T14:47:45.626Z,1.47
2019-01-31T14:50:17.217Z,1.57
2019-01-31T14:52:45.629Z,1.87
2019-01-31T14:55:14.021Z,1.37
2019-01-31T14:57:42.373Z,1.43
2019-01-31T15:00:14.169Z,1.60
2019-01-31T15:02:42.468Z,1.87
2019-01-31T15:05:13.476Z,2.27
2019-01-31T15:07:41.778Z,1.70
2019-01-31T15:10:13.578Z,2.40
2019-01-31T15:12:41.861Z,2.90
2019-01-31T15:15:12.865Z,3.00
2019-01-31T15:17:41.217Z,2.20
2019-01-31T15:20:13.098Z,2.03
2019-01-31T15:22:41.458Z,2.10
2019-01-31T15:25:10.866Z,2.37
2019-01-31T15:27:39.197Z,2.33
2019-01-31T15:30:19.759Z,2.13
2019-01-31T15:32:48.191Z,1.80
2019-01-31T15:35:16.570Z,2.10
2019-01-31T15:37:44.942Z,2.00
2019-01-31T15:40:19.077Z,2.40
2019-01-31T15:42:49.029Z,2.60
2019-01-31T15:45:17.592Z,2.43
2019-01-31T15:47:46.079Z,2.10
2019-01-31T15:50:16.172Z,2.13
2019-01-31T15:52:44.519Z,1.93
2019-01-31T15:55:15.506Z,2.80
2019-01-31T15:57:44.848Z,2.07
2019-01-31T16:00:29.581Z,2.40
2019-01-31T16:02:57.908Z,2.10
2019-01-31T16:05:26.326Z,2.20
2019-01-31T16:07:54.690Z,2.50
2019-01-31T16:10:23.061Z,1.70
2019-01-31T16:12:51.429Z,1.80
2019-01-31T16:15:19.816Z,2.17
2019-01-31T16:17:48.145Z,1.97
2019-01-31T16:20:16.505Z,1.80
2019-01-31T16:22:44.858Z,2.30
2019-01-31T16:25:13.237Z,2.40
2019-01-31T16:27:41.544Z,1.90
2019-01-31T16:30:13.372Z,2.20
2019-01-31T16:32:41.774Z,1.80
2019-01-31T16:35:12.858Z,2.00
2019-01-31T16:37:41.227Z,2.20
2019-01-31T16:40:12.376Z,2.10
2019-01-31T16:42:40.813Z,3.63
2019-01-31T16:45:12.250Z,6.27
2019-01-31T16:47:40.801Z,4.23
2019-01-31T16:50:14.198Z,3.03
2019-01-31T16:52:42.572Z,2.50
2019-01-31T16:55:13.360Z,2.57
2019-01-31T16:57:41.732Z,2.10
2019-01-31T17:00:13.294Z,2.53
2019-01-31T17:02:41.660Z,2.50
2019-01-31T17:05:18.265Z,2.30
2019-01-31T17:07:46.659Z,2.13
2019-01-31T17:10:15.294Z,2.37
2019-01-31T17:12:43.685Z,2.80
2019-01-31T17:15:18.100Z,2.80
2019-01-31T17:17:46.577Z,2.50
2019-01-31T17:20:23.619Z,1.97
2019-01-31T17:22:51.994Z,2.13
2019-01-31T17:25:20.421Z,2.93
2019-01-31T17:27:48.764Z,4.50
2019-01-31T17:30:22.036Z,2.77
2019-01-31T17:32:50.542Z,2.17
2019-01-31T17:35:18.986Z,2.10
2019-01-31T17:37:47.353Z,1.90
2019-01-31T17:40:21.647Z,2.13
2019-01-31T17:42:50.037Z,1.83
2019-01-31T17:45:29.854Z,2.53
2019-01-31T17:47:50.234Z,3.00
2019-01-31T17:50:18.708Z,3.27
2019-01-31T17:52:47.139Z,3.33
2019-01-31T17:55:20.748Z,4.77
2019-01-31T17:57:49.327Z,3.43
2019-01-31T18:00:31.521Z,3.00
2019-01-31T18:02:59.811Z,3.87
2019-01-31T18:05:28.178Z,3.33
2019-01-31T18:07:56.597Z,3.67
2019-01-31T18:10:25.041Z,3.50
2019-01-31T18:12:53.446Z,4.20
2019-01-31T18:15:21.867Z,4.20
2019-01-31T18:17:50.297Z,4.43
2019-01-31T18:20:21.104Z,5.93
2019-01-31T18:22:49.476Z,5.20
2019-01-31T18:25:17.866Z,4.97
2019-01-31T18:27:46.225Z,4.80
2019-01-31T18:30:26.437Z,5.03
2019-01-31T18:32:54.779Z,4.53
2019-01-31T18:35:23.214Z,5.30
2019-01-31T18:37:51.548Z,5.50
2019-01-31T18:40:25.332Z,4.93
2019-01-31T18:42:53.693Z,5.57
2019-01-31T18:45:27.526Z,5.13
2019-01-31T18:47:55.910Z,5.20
2019-01-31T18:50:29.742Z,5.37
2019-01-31T18:52:58.117Z,5.43
2019-01-31T18:55:26.859Z,4.90
2019-01-31T18:57:55.249Z,5.90
2019-01-31T19:00:38.877Z,5.53
2019-01-31T19:03:07.248Z,5.20
2019-01-31T19:05:35.566Z,5.63
2019-01-31T19:08:07.163Z,5.27
2019-01-31T19:10:42.714Z,5.40
2019-01-31T19:13:04.393Z,5.27
2019-01-31T19:15:32.922Z,5.37
2019-01-31T19:18:06.038Z,5.30
2019-01-31T19:20:34.405Z,5.67
2019-01-31T19:23:03.830Z,5.93
2019-01-31T19:25:32.518Z,5.67
2019-01-31T19:28:00.829Z,5.87
2019-01-31T19:30:34.431Z,6.27
2019-01-31T19:33:02.845Z,5.10
2019-01-31T19:35:31.234Z,5.60
2019-01-31T19:38:02.089Z,5.70
2019-01-31T19:40:32.400Z,6.30
2019-01-31T19:43:00.844Z,5.97
2019-01-31T19:45:31.623Z,5.93
2019-01-31T19:47:59.940Z,5.70
2019-01-31T19:50:28.565Z,5.77
2019-01-31T19:52:56.870Z,6.40
2019-01-31T19:55:25.224Z,6.23
2019-01-31T19:57:53.664Z,6.90
2019-01-31T20:00:24.489Z,5.87
2019-01-31T20:02:52.886Z,6.13
2019-01-31T20:05:21.453Z,6.10
2019-01-31T20:07:49.905Z,5.33
2019-01-31T20:10:25.997Z,5.60
2019-01-31T20:12:54.618Z,6.07
2019-01-31T20:15:23.041Z,6.20
2019-01-31T20:17:51.426Z,5.80
2019-01-31T20:20:22.024Z,5.90
2019-01-31T20:22:51.344Z,5.63
2019-01-31T20:25:20.091Z,5.40
2019-01-31T20:27:48.822Z,5.23
2019-01-31T20:30:25.682Z,5.73
2019-01-31T20:32:54.315Z,5.77
2019-01-31T20:35:23.673Z,5.53
2019-01-31T20:37:52.226Z,5.03
2019-01-31T20:40:29.204Z,5.07
2019-01-31T20:42:57.764Z,5.47
2019-01-31T20:45:26.076Z,5.27
2019-01-31T20:47:54.544Z,5.60
2019-01-31T20:50:28.657Z,5.00
2019-01-31T20:52:57.157Z,5.60
2019-01-31T20:55:25.561Z,5.20
2019-01-31T20:57:54.035Z,5.17
2019-01-31T21:00:32.842Z,5.43
2019-01-31T21:03:01.401Z,5.57
2019-01-31T21:05:29.909Z,5.07
2019-01-31T21:07:58.463Z,4.77
2019-01-31T21:10:28.011Z,4.77
2019-01-31T21:12:56.372Z,4.73
2019-01-31T21:15:25.797Z,5.00
2019-01-31T21:17:54.137Z,4.73
2019-01-31T21:20:26.277Z,4.83
2019-01-31T21:22:54.366Z,4.53
2019-01-31T21:25:22.729Z,4.93
2019-01-31T21:27:51.120Z,4.47
2019-01-31T21:30:30.640Z,4.87
2019-01-31T21:32:59.066Z,4.70
2019-01-31T21:35:28.145Z,5.20
2019-01-31T21:37:56.574Z,4.67
2019-01-31T21:40:27.189Z,4.90
2019-01-31T21:42:55.650Z,5.00
2019-01-31T21:45:24.875Z,4.93
2019-01-31T21:47:53.319Z,4.97
2019-01-31T21:50:23.838Z,5.10
2019-01-31T21:52:52.245Z,5.17
2019-01-31T21:55:20.722Z,5.40
2019-01-31T21:57:49.127Z,5.10
2019-01-31T22:00:31.756Z,4.53
2019-01-31T22:03:00.186Z,4.60
2019-01-31T22:05:28.681Z,4.63
2019-01-31T22:07:57.124Z,4.60
2019-01-31T22:10:25.474Z,4.63
2019-01-31T22:12:53.870Z,4.63
2019-01-31T22:15:24.369Z,5.03
2019-01-31T22:17:52.664Z,4.43
2019-01-31T22:20:21.170Z,4.77
2019-01-31T22:22:49.572Z,4.80
2019-01-31T22:25:19.923Z,4.93
2019-01-31T22:27:48.310Z,5.20
2019-01-31T22:30:22.604Z,5.17
2019-01-31T22:32:51.034Z,5.33
2019-01-31T22:35:19.442Z,5.00
2019-01-31T22:37:47.839Z,5.00
2019-01-31T22:40:17.351Z,5.00
2019-01-31T22:42:45.754Z,5.23
2019-01-31T22:45:20.602Z,5.03
2019-01-31T22:47:49.105Z,4.60
2019-01-31T22:50:19.149Z,4.40
2019-01-31T22:52:47.682Z,5.20
2019-01-31T22:55:21.628Z,5.07
2019-01-31T22:57:51.684Z,4.73
2019-01-31T23:00:26.043Z,5.40
2019-01-31T23:02:54.443Z,4.40
2019-01-31T23:05:22.997Z,4.80
2019-01-31T23:07:51.773Z,4.57
2019-01-31T23:10:20.273Z,4.40
2019-01-31T23:12:48.615Z,4.53
2019-01-31T23:15:16.991Z,4.37
2019-01-31T23:17:45.344Z,5.07
2019-01-31T23:20:16.594Z,4.93
2019-01-31T23:22:45.021Z,4.80
2019-01-31T23:25:13.409Z,4.90
2019-01-31T23:27:41.762Z,4.80
2019-01-31T23:30:13.237Z,4.80
2019-01-31T23:32:41.653Z,4.60
2019-01-31T23:35:09.975Z,4.70
2019-01-31T23:37:38.332Z,4.73
2019-01-31T23:40:09.680Z,4.70
2019-01-31T23:42:38.021Z,4.50
2019-01-31T23:45:15.500Z,4.90
2019-01-31T23:47:49.040Z,4.40
2019-01-31T23:50:13.968Z,4.87
2019-01-31T23:52:42.331Z,4.77
2019-01-31T23:55:15.868Z,4.43
2019-01-31T23:57:44.188Z,4.87
